Time;durP1;ratioP1;P1;durP2;ratioP2;P2;SDS_P1;SDS_P2;PMS_P1;PMS_P2;Temp;Humidity;BMP_temperature;BMP_pressure;BME280_temperature;BME280_humidity;BME280_pressure;Samples;Min_cycle;Max_cycle;Signal;HPM_P1;HPM_P2
2022/05/30 00:01:19;;;;;;;3.97;2.27;;;14.30;58.80;;;;;;4954333;28;20211;-83
2022/05/30 00:03:47;;;;;;;6.13;3.00;;;14.30;58.80;;;;;;4954664;28;20602;-81
2022/05/30 00:06:21;;;;;;;8.33;1.83;;;14.50;58.40;;;;;;4953979;29;20243;-79
2022/05/30 00:08:48;;;;;;;2.70;1.27;;;14.50;59.20;;;;;;4938177;29;20218;-80
2022/05/30 00:11:17;;;;;;;4.63;3.33;;;14.60;58.80;;;;;;4955447;29;20188;-80
2022/05/30 00:13:45;;;;;;;8.87;4.53;;;14.60;58.10;;;;;;4948102;28;20184;-82
2022/05/30 00:16:16;;;;;;;5.27;1.60;;;14.50;59.20;;;;;;4948049;29;20218;-79
2022/05/30 00:18:44;;;;;;;3.87;1.33;;;14.40;58.90;;;;;;4947541;28;20183;-83
2022/05/30 00:21:12;;;;;;;3.57;1.30;;;14.50;59.30;;;;;;4933929;29;20349;-84
2022/05/30 00:23:41;;;;;;;5.77;1.93;;;14.80;59.60;;;;;;4963997;28;20191;-79
2022/05/30 00:26:08;;;;;;;8.30;1.57;;;14.90;59.40;;;;;;4937394;29;20231;-76
2022/05/30 00:28:37;;;;;;;4.77;2.10;;;14.90;58.50;;;;;;4952746;28;20406;-78
2022/05/30 00:31:08;;;;;;;2.97;1.77;;;14.80;58.10;;;;;;4953108;28;20187;-80
2022/05/30 00:33:36;;;;;;;2.30;1.30;;;14.80;58.40;;;;;;4952318;28;20175;-79
2022/05/30 00:36:03;;;;;;;1.67;1.20;;;14.80;58.80;;;;;;4952134;28;20193;-82
2022/05/30 00:38:31;;;;;;;3.43;2.00;;;14.90;59.30;;;;;;4954169;28;20175;-79
2022/05/30 00:40:58;;;;;;;3.87;1.90;;;15.00;59.30;;;;;;4954418;28;20206;-80
2022/05/30 00:43:29;;;;;;;2.17;1.30;;;15.00;59.20;;;;;;4954332;28;20526;-78
2022/05/30 00:46:00;;;;;;;1.57;1.10;;;15.00;58.40;;;;;;4954655;28;20184;-78
2022/05/30 00:49:00;;;;;;;5.77;3.03;;;14.90;59.00;;;;;;4954094;29;20215;-83
2022/05/30 00:51:44;;;;;;;4.53;1.20;;;14.90;60.50;;;;;;4934361;28;20185;-77
2022/05/30 00:54:19;;;;;;;2.87;1.00;;;14.80;61.40;;;;;;4949116;28;20194;-78
2022/05/30 00:56:51;;;;;;;4.27;1.20;;;14.50;61.30;;;;;;4930166;29;20198;-79
2022/05/30 00:59:18;;;;;;;4.57;1.63;;;14.30;64.20;;;;;;4941900;29;20172;-77
2022/05/30 01:01:46;;;;;;;1.80;1.17;;;14.20;64.50;;;;;;4931795;29;20246;-77
2022/05/30 01:07:04;;;;;;;5.60;2.57;;;14.20;64.20;;;;;;4951699;28;20186;-78
2022/05/30 01:09:35;;;;;;;3.07;1.50;;;14.20;64.80;;;;;;4954264;28;20188;-79
2022/05/30 01:12:06;;;;;;;2.83;1.50;;;14.30;64.70;;;;;;4954266;29;20198;-80
2022/05/30 01:14:44;;;;;;;3.13;1.37;;;14.40;65.20;;;;;;4936806;29;20183;-77
2022/05/30 01:17:15;;;;;;;1.97;1.20;;;14.40;65.30;;;;;;4953850;29;20283;-80
2022/05/30 01:19:55;;;;;;;5.30;1.90;;;14.30;65.40;;;;;;4954378;28;20190;-79
2022/05/30 01:23:18;;;;;;;2.17;1.40;;;14.20;65.60;;;;;;4952286;28;20209;-80
2022/05/30 01:26:07;;;;;;;7.73;2.37;;;14.00;65.80;;;;;;4921719;29;20313;-78
2022/05/30 01:28:46;;;;;;;9.67;3.00;;;14.00;66.40;;;;;;4947630;28;20298;-74
2022/05/30 01:31:15;;;;;;;9.87;2.23;;;14.00;66.60;;;;;;4945275;28;20191;-78
2022/05/30 01:33:43;;;;;;;8.63;1.60;;;13.90;66.40;;;;;;4953898;28;20175;-77
2022/05/30 01:36:11;;;;;;;5.50;1.20;;;13.90;66.80;;;;;;4936621;29;20549;-78
2022/05/30 01:38:38;;;;;;;7.57;5.80;;;13.90;67.10;;;;;;4952397;28;20578;-77
2022/05/30 01:41:06;;;;;;;5.57;4.37;;;13.90;67.10;;;;;;4954804;28;20229;-75
2022/05/30 01:43:34;;;;;;;4.80;2.37;;;13.90;67.30;;;;;;4957951;28;20274;-78
2022/05/30 01:46:12;;;;;;;1.23;0.83;;;13.80;67.50;;;;;;4957894;29;20186;-78
2022/05/30 01:48:39;;;;;;;3.23;1.10;;;13.80;67.90;;;;;;4957673;28;20179;-80
2022/05/30 01:51:06;;;;;;;4.60;1.20;;;13.80;68.10;;;;;;4957653;29;20187;-77
2022/05/30 01:53:34;;;;;;;3.93;3.43;;;13.80;68.10;;;;;;4956807;28;20257;-77
2022/05/30 01:56:01;;;;;;;3.10;1.13;;;13.80;67.20;;;;;;4956751;29;20226;-78
2022/05/30 01:58:30;;;;;;;1.60;1.30;;;13.80;67.40;;;;;;4951461;29;20654;-80
2022/05/30 02:00:57;;;;;;;3.60;2.23;;;13.80;67.30;;;;;;4958052;28;20214;-79
2022/05/30 02:03:24;;;;;;;5.80;1.70;;;13.90;66.20;;;;;;4940099;29;20187;-80
2022/05/30 02:05:52;;;;;;;2.73;1.10;;;14.20;66.70;;;;;;4957015;28;20210;-78
2022/05/30 02:08:21;;;;;;;2.83;1.00;;;14.50;65.90;;;;;;4956807;28;20548;-79
2022/05/30 02:10:49;;;;;;;2.00;1.10;;;15.10;64.20;;;;;;4957457;28;20214;-78
2022/05/30 02:13:16;;;;;;;4.07;3.20;;;15.50;63.10;;;;;;4957083;28;20183;-80
2022/05/30 02:18:29;;;;;;;1.13;0.90;;;16.30;60.20;;;;;;4944673;29;20280;-80
2022/05/30 02:20:56;;;;;;;1.30;0.87;;;16.60;59.40;;;;;;4957826;28;20218;-76
2022/05/30 02:23:24;;;;;;;2.40;1.10;;;16.20;59.80;;;;;;4940810;28;20194;-78
2022/05/30 02:25:51;;;;;;;1.00;0.90;;;15.80;61.30;;;;;;4957169;28;20230;-76
2022/05/30 02:28:18;;;;;;;1.20;0.80;;;15.60;62.30;;;;;;4925833;29;20193;-78
2022/05/30 02:30:46;;;;;;;1.07;0.70;;;15.60;62.60;;;;;;4943987;29;20248;-75
2022/05/30 02:38:45;;;;;;;0.83;0.70;;;15.80;61.30;;;;;;4937714;29;20278;-77
2022/05/30 02:41:12;;;;;;;4.10;0.90;;;15.80;61.70;;;;;;4947794;29;20204;-76
2022/05/30 02:43:39;;;;;;;2.60;0.80;;;15.70;61.60;;;;;;4957130;28;20185;-78
2022/05/30 02:46:07;;;;;;;1.00;0.90;;;15.50;62.00;;;;;;4952527;28;20284;-77
2022/05/30 02:48:34;;;;;;;1.20;1.00;;;15.50;62.90;;;;;;4944660;29;20555;-74
2022/05/30 02:51:02;;;;;;;1.40;0.90;;;15.30;63.00;;;;;;4944487;28;20551;-76
2022/05/30 02:53:30;;;;;;;1.03;0.80;;;15.20;63.80;;;;;;4975057;28;20580;-77
2022/05/30 02:55:59;;;;;;;1.67;1.10;;;15.00;64.30;;;;;;4952886;28;20253;-77
2022/05/30 02:58:26;;;;;;;1.67;1.03;;;15.10;64.50;;;;;;4955810;28;20554;-77
2022/05/30 03:00:54;;;;;;;1.13;1.00;;;15.10;65.20;;;;;;4956421;28;20223;-77
2022/05/30 03:03:22;;;;;;;9.40;2.03;;;15.20;65.70;;;;;;4955470;28;20663;-77
2022/05/30 03:05:49;;;;;;;1.27;1.03;;;15.20;65.20;;;;;;4955774;28;20215;-77
2022/05/30 03:08:17;;;;;;;3.50;1.03;;;15.20;65.20;;;;;;4954788;29;20199;-78
2022/05/30 03:10:44;;;;;;;2.03;1.20;;;15.20;65.00;;;;;;4955809;29;20720;-78
2022/05/30 03:13:12;;;;;;;3.43;1.00;;;15.30;65.30;;;;;;4956151;29;20299;-78
2022/05/30 03:15:39;;;;;;;1.13;1.03;;;15.40;65.40;;;;;;4955265;28;20184;-75
2022/05/30 03:18:07;;;;;;;2.80;1.30;;;15.40;64.20;;;;;;4953441;29;20206;-75
2022/05/30 03:20:35;;;;;;;2.03;1.00;;;15.40;64.40;;;;;;4956158;28;20179;-76
2022/05/30 03:23:02;;;;;;;2.50;1.20;;;15.40;64.00;;;;;;4955326;29;20725;-77
2022/05/30 03:25:30;;;;;;;2.13;1.10;;;15.60;64.20;;;;;;4955891;28;20236;-76
2022/05/30 03:27:57;;;;;;;1.30;1.00;;;15.70;64.00;;;;;;4936229;29;20193;-77
2022/05/30 03:30:25;;;;;;;4.60;1.50;;;16.10;63.20;;;;;;4954198;28;20220;-78
2022/05/30 03:32:53;;;;;;;2.13;1.20;;;17.20;60.60;;;;;;4952103;28;20309;-78
2022/05/30 03:35:21;;;;;;;4.60;1.27;;;17.80;57.40;;;;;;4955642;28;20182;-76
2022/05/30 03:37:48;;;;;;;3.47;1.20;;;17.80;58.00;;;;;;4955761;28;20191;-76
2022/05/30 03:40:16;;;;;;;3.77;1.13;;;17.30;59.60;;;;;;4955191;28;20650;-77
2022/05/30 03:42:43;;;;;;;3.57;1.30;;;16.80;61.00;;;;;;4955574;28;20221;-78
2022/05/30 03:45:13;;;;;;;4.00;1.73;;;16.60;62.00;;;;;;4955615;28;20553;-78
2022/05/30 03:47:44;;;;;;;4.93;1.40;;;16.60;62.60;;;;;;4953026;28;20242;-77
2022/05/30 03:50:18;;;;;;;8.07;1.60;;;16.50;63.30;;;;;;4949835;29;20199;-78
2022/05/30 03:52:45;;;;;;;3.77;1.67;;;16.40;64.20;;;;;;4955591;28;20182;-75
2022/05/30 03:55:15;;;;;;;2.77;1.50;;;16.20;64.50;;;;;;4954779;29;20198;-75
2022/05/30 03:57:43;;;;;;;4.80;2.87;;;16.10;64.90;;;;;;4955664;29;20177;-75
2022/05/30 04:00:22;;;;;;;5.00;3.70;;;16.10;65.50;;;;;;4935042;29;20549;-76
2022/05/30 04:02:49;;;;;;;3.97;2.77;;;16.00;65.00;;;;;;4954254;29;20270;-79
2022/05/30 04:05:18;;;;;;;5.97;1.97;;;16.10;65.10;;;;;;4952068;28;20187;-77
2022/05/30 04:07:46;;;;;;;5.00;1.40;;;16.20;65.10;;;;;;4955102;28;20218;-78
2022/05/30 04:10:15;;;;;;;4.17;1.60;;;16.10;64.90;;;;;;4955129;28;20183;-81
2022/05/30 04:12:43;;;;;;;2.70;1.30;;;16.20;64.80;;;;;;4955259;28;20184;-80
2022/05/30 04:15:18;;;;;;;2.57;1.23;;;16.10;64.10;;;;;;4955194;29;20184;-81
2022/05/30 04:17:45;;;;;;;8.00;3.63;;;16.00;64.80;;;;;;4937717;29;20513;-80
2022/05/30 04:20:13;;;;;;;3.33;2.13;;;16.00;64.50;;;;;;4946093;28;20636;-76
2022/05/30 04:22:41;;;;;;;5.90;1.60;;;16.00;64.20;;;;;;4941979;29;20211;-81
2022/05/30 04:25:09;;;;;;;6.33;2.07;;;16.10;64.50;;;;;;4954238;28;20221;-73
2022/05/30 04:27:36;;;;;;;8.07;3.40;;;16.20;63.70;;;;;;4954990;29;20267;-75
2022/05/30 04:30:06;;;;;;;3.27;1.20;;;16.10;64.20;;;;;;4936582;29;20265;-81
2022/05/30 04:32:34;;;;;;;4.13;1.40;;;16.10;64.50;;;;;;4948511;29;20263;-80
2022/05/30 04:35:03;;;;;;;2.97;1.30;;;16.10;64.80;;;;;;4953755;28;20654;-77
2022/05/30 04:37:31;;;;;;;2.80;1.40;;;16.00;64.40;;;;;;4953886;28;20191;-78
2022/05/30 04:39:58;;;;;;;2.17;1.17;;;16.10;64.70;;;;;;4954668;29;20238;-78
2022/05/30 04:42:25;;;;;;;6.63;1.27;;;16.10;65.00;;;;;;4954608;28;20207;-76
2022/05/30 04:44:53;;;;;;;3.70;1.10;;;16.00;64.60;;;;;;4954252;28;20182;-77
2022/05/30 04:47:23;;;;;;;4.30;1.23;;;16.00;65.30;;;;;;4954389;28;20270;-76
2022/05/30 04:49:51;;;;;;;5.27;1.27;;;16.00;65.10;;;;;;4954652;28;20641;-80
2022/05/30 04:52:21;;;;;;;6.10;1.40;;;16.10;65.10;;;;;;4952085;28;20558;-76
2022/05/30 04:54:48;;;;;;;3.47;1.43;;;16.00;67.10;;;;;;4953989;29;20346;-76
2022/05/30 04:57:16;;;;;;;4.47;1.63;;;15.90;69.00;;;;;;4960137;28;20575;-77
2022/05/30 04:59:43;;;;;;;4.10;1.40;;;15.80;70.20;;;;;;4956076;28;20188;-79
2022/05/30 05:02:12;;;;;;;2.40;1.53;;;15.70;69.60;;;;;;4953535;28;20359;-77
2022/05/30 05:04:41;;;;;;;4.20;1.23;;;15.60;69.90;;;;;;4952206;29;20634;-77
2022/05/30 05:07:08;;;;;;;1.53;1.20;;;15.60;69.40;;;;;;4951968;28;20204;-77
2022/05/30 05:09:46;;;;;;;6.83;1.47;;;15.50;70.00;;;;;;4953606;28;20647;-76
2022/05/30 05:12:13;;;;;;;2.70;1.20;;;15.50;69.80;;;;;;4953641;28;20513;-75
2022/05/30 05:14:41;;;;;;;2.23;1.20;;;15.50;69.80;;;;;;4953756;28;20694;-77
2022/05/30 05:17:09;;;;;;;7.47;1.70;;;15.60;70.20;;;;;;4935915;29;20270;-78
2022/05/30 05:19:40;;;;;;;5.23;1.67;;;15.50;73.00;;;;;;4953661;28;20186;-76
2022/05/30 05:22:12;;;;;;;2.77;1.30;;;15.30;73.80;;;;;;4952785;28;20225;-75
2022/05/30 05:24:40;;;;;;;2.87;1.67;;;15.20;76.10;;;;;;4953155;28;20702;-77
2022/05/30 05:27:07;;;;;;;2.67;1.50;;;15.00;75.90;;;;;;4954339;28;20194;-77
2022/05/30 05:29:35;;;;;;;6.13;1.60;;;14.90;75.90;;;;;;4952550;29;20642;-77
2022/05/30 05:32:04;;;;;;;2.70;1.53;;;14.80;76.40;;;;;;4954513;28;20238;-77
2022/05/30 05:34:31;;;;;;;6.30;1.47;;;14.80;76.30;;;;;;4955048;28;20191;-77
2022/05/30 05:36:58;;;;;;;4.60;1.80;;;14.80;76.40;;;;;;4954967;29;20605;-77
2022/05/30 05:39:26;;;;;;;4.07;1.50;;;14.90;76.60;;;;;;4954235;29;20187;-77
2022/05/30 05:41:53;;;;;;;3.83;1.60;;;14.90;77.00;;;;;;4953794;29;20225;-79
2022/05/30 05:44:21;;;;;;;5.90;1.97;;;14.90;77.40;;;;;;4954320;28;20184;-77
2022/05/30 05:46:48;;;;;;;6.37;2.23;;;14.80;77.90;;;;;;4953882;29;20199;-77
2022/05/30 05:49:16;;;;;;;3.83;1.67;;;14.80;76.90;;;;;;4953506;28;20190;-76
2022/05/30 05:51:43;;;;;;;4.13;1.50;;;14.80;76.90;;;;;;4951060;28;20222;-78
2022/05/30 05:54:10;;;;;;;7.30;1.67;;;14.80;76.50;;;;;;4952343;28;20186;-77
2022/05/30 05:56:38;;;;;;;5.60;1.57;;;14.80;77.00;;;;;;4949772;28;20267;-80
2022/05/30 05:59:05;;;;;;;2.90;1.30;;;14.80;77.30;;;;;;4952126;28;20187;-76
2022/05/30 06:01:34;;;;;;;5.33;1.67;;;14.80;77.60;;;;;;4954022;28;20211;-77
2022/05/30 06:04:08;;;;;;;5.93;1.37;;;14.80;77.90;;;;;;4952992;29;20179;-79
2022/05/30 06:06:35;;;;;;;3.10;1.60;;;14.70;78.70;;;;;;4962106;28;20187;-75
2022/05/30 06:09:04;;;;;;;5.97;1.87;;;14.70;78.00;;;;;;4957106;28;20179;-79
2022/05/30 06:11:33;;;;;;;3.27;1.67;;;14.60;78.20;;;;;;4954128;28;20523;-78
2022/05/30 06:14:01;;;;;;;4.37;1.87;;;14.60;78.50;;;;;;4922143;29;20219;-77
2022/05/30 06:16:36;;;;;;;5.63;1.80;;;14.60;77.50;;;;;;4953681;28;20176;-78
2022/05/30 06:19:04;;;;;;;2.37;1.70;;;14.60;78.20;;;;;;4953897;28;20191;-86
2022/05/30 06:21:33;;;;;;;6.93;1.50;;;14.60;79.20;;;;;;4953786;28;20217;-79
2022/05/30 06:24:01;;;;;;;4.20;1.67;;;14.60;79.30;;;;;;4952383;28;20550;-75
2022/05/30 06:26:28;;;;;;;4.43;2.20;;;14.60;78.40;;;;;;4953581;29;20231;-80
2022/05/30 06:28:57;;;;;;;11.30;1.80;;;14.60;78.80;;;;;;4953169;28;20188;-77
2022/05/30 06:31:27;;;;;;;5.77;1.90;;;14.60;78.90;;;;;;4956991;28;20287;-78
2022/05/30 06:33:55;;;;;;;4.40;2.30;;;14.50;79.50;;;;;;4938619;29;20282;-78
2022/05/30 06:36:25;;;;;;;4.10;1.83;;;14.50;79.10;;;;;;4956712;28;20183;-75
2022/05/30 06:38:53;;;;;;;5.40;1.87;;;14.50;78.70;;;;;;4959789;28;20187;-81
2022/05/30 06:41:32;;;;;;;4.40;1.57;;;14.50;78.40;;;;;;4950975;28;20597;-77
2022/05/30 06:44:04;;;;;;;5.50;2.07;;;14.50;78.70;;;;;;4954899;28;20552;-81
2022/05/30 06:46:34;;;;;;;3.70;1.67;;;14.50;78.60;;;;;;4955929;28;20193;-80
2022/05/30 06:49:02;;;;;;;2.30;1.70;;;14.50;78.50;;;;;;4956367;28;20191;-76
2022/05/30 06:51:31;;;;;;;7.00;1.70;;;14.50;79.10;;;;;;4955976;28;20634;-81
2022/05/30 06:53:58;;;;;;;2.77;1.80;;;14.50;79.00;;;;;;4957146;28;20243;-74
2022/05/30 06:56:29;;;;;;;4.87;1.63;;;14.50;78.70;;;;;;4947757;28;20194;-76
2022/05/30 06:58:57;;;;;;;5.13;2.20;;;14.40;79.00;;;;;;4956509;29;20187;-75
2022/05/30 07:01:34;;;;;;;5.90;2.40;;;14.30;80.70;;;;;;4956182;28;20727;-75
2022/05/30 07:04:01;;;;;;;11.27;3.37;;;14.10;83.20;;;;;;4938355;29;20255;-76
2022/05/30 07:06:33;;;;;;;14.07;3.50;;;13.70;86.30;;;;;;4954852;28;20187;-77
2022/05/30 07:09:01;;;;;;;5.80;1.90;;;12.80;88.00;;;;;;4937943;28;20187;-77
2022/05/30 07:11:29;;;;;;;6.63;1.80;;;11.80;87.20;;;;;;4938888;29;20194;-71
2022/05/30 07:13:57;;;;;;;6.00;2.20;;;11.30;87.70;;;;;;4954825;28;20215;-71
2022/05/30 07:16:25;;;;;;;5.07;2.17;;;11.00;88.70;;;;;;4956195;28;20181;-74
2022/05/30 07:18:53;;;;;;;8.40;1.80;;;10.80;89.20;;;;;;4955935;28;20193;-72
2022/05/30 07:21:21;;;;;;;3.83;1.80;;;10.70;89.40;;;;;;4955302;28;20211;-71
2022/05/30 07:23:50;;;;;;;2.87;1.70;;;10.60;89.40;;;;;;4956368;28;20229;-71
2022/05/30 07:26:20;;;;;;;4.00;1.67;;;10.30;89.10;;;;;;4955892;28;20254;-77
2022/05/30 07:28:48;;;;;;;7.40;2.10;;;10.30;89.30;;;;;;4947265;28;20578;-74
2022/05/30 07:31:19;;;;;;;5.30;1.87;;;10.30;90.00;;;;;;4947992;29;20191;-77
2022/05/30 07:33:48;;;;;;;3.13;1.97;;;10.30;90.10;;;;;;4955158;28;20684;-74
2022/05/30 07:36:25;;;;;;;4.00;2.00;;;10.30;90.30;;;;;;4955047;29;20191;-76
2022/05/30 07:38:53;;;;;;;4.03;1.70;;;10.30;90.20;;;;;;4946730;28;20493;-79
2022/05/30 07:41:23;;;;;;;2.80;1.80;;;10.30;89.80;;;;;;4955241;29;20233;-75
2022/05/30 07:43:50;;;;;;;4.30;1.77;;;10.40;90.40;;;;;;4938470;29;20186;-78
2022/05/30 07:46:19;;;;;;;4.23;2.07;;;10.40;89.60;;;;;;4955285;28;20262;-72
2022/05/30 07:48:47;;;;;;;3.87;2.03;;;10.50;89.60;;;;;;4955094;28;20183;-78
2022/05/30 07:51:15;;;;;;;2.33;1.57;;;10.50;89.70;;;;;;4955132;28;20182;-78
2022/05/30 07:53:44;;;;;;;5.10;1.80;;;10.50;89.30;;;;;;4955408;28;20205;-71
2022/05/30 07:56:16;;;;;;;4.70;2.13;;;10.40;88.90;;;;;;4955121;28;20193;-77
2022/05/30 07:58:44;;;;;;;2.37;1.80;;;10.40;89.20;;;;;;4952231;28;20210;-76
2022/05/30 08:01:15;;;;;;;2.17;1.90;;;10.40;89.30;;;;;;4955210;28;20229;-72
2022/05/30 08:03:43;;;;;;;2.40;1.80;;;10.50;88.60;;;;;;4955241;28;20669;-75
2022/05/30 08:06:14;;;;;;;6.03;2.10;;;10.50;88.20;;;;;;4954139;28;20184;-75
2022/05/30 08:08:43;;;;;;;4.00;1.97;;;10.50;88.10;;;;;;4955288;29;20776;-73
2022/05/30 08:11:11;;;;;;;2.23;2.00;;;10.50;87.60;;;;;;4955327;28;20190;-73
2022/05/30 08:13:39;;;;;;;3.10;2.00;;;10.60;87.80;;;;;;4954695;28;20193;-76
2022/05/30 08:16:07;;;;;;;2.60;2.10;;;10.60;87.10;;;;;;4955597;28;20594;-79
2022/05/30 08:18:35;;;;;;;3.13;2.30;;;10.60;87.00;;;;;;4955587;28;20186;-78
2022/05/30 08:21:04;;;;;;;2.13;1.93;;;10.60;87.40;;;;;;4944678;29;20269;-75
2022/05/30 08:23:32;;;;;;;2.57;1.90;;;10.60;87.90;;;;;;4954274;28;20202;-76
2022/05/30 08:25:59;;;;;;;2.83;2.03;;;10.70;87.80;;;;;;4953873;28;20317;-76
2022/05/30 08:28:27;;;;;;;2.50;1.90;;;10.60;87.30;;;;;;4954355;28;20191;-75
2022/05/30 08:30:55;;;;;;;5.57;2.90;;;10.60;87.50;;;;;;4955012;29;20234;-77
2022/05/30 08:33:23;;;;;;;3.93;2.40;;;10.60;87.50;;;;;;4954882;28;20188;-77
2022/05/30 08:36:09;;;;;;;3.43;2.33;;;10.60;87.70;;;;;;4953900;29;20214;-76
2022/05/30 08:38:38;;;;;;;6.87;4.30;;;10.50;87.00;;;;;;4946727;28;20654;-77
2022/05/30 08:43:57;;;;;;;3.00;1.57;;;10.60;85.20;;;;;;4955265;28;20691;-75
2022/05/30 08:46:55;;;;;;;3.27;1.67;;;10.60;84.60;;;;;;4937070;29;20245;-75
2022/05/30 08:49:43;;;;;;;2.83;1.63;;;10.60;83.50;;;;;;4954595;28;20178;-78
2022/05/30 08:52:28;;;;;;;2.07;1.30;;;10.50;83.50;;;;;;4954189;28;20190;-78
2022/05/30 08:55:14;;;;;;;3.40;2.23;;;10.60;82.80;;;;;;4954217;28;20186;-78
2022/05/30 08:57:53;;;;;;;2.73;1.53;;;10.60;81.90;;;;;;4947673;28;20721;-76
2022/05/30 09:00:41;;;;;;;2.67;1.77;;;10.60;82.50;;;;;;4954563;28;20515;-76
2022/05/30 09:03:24;;;;;;;2.37;1.30;;;10.60;81.60;;;;;;4954270;28;20211;-79
2022/05/30 09:06:00;;;;;;;1.53;1.30;;;10.70;81.80;;;;;;4953755;28;20281;-76
2022/05/30 09:08:41;;;;;;;1.43;1.30;;;10.60;79.90;;;;;;4953310;28;20187;-74
2022/05/30 09:11:28;;;;;;;1.63;1.30;;;10.70;79.20;;;;;;4936742;29;20201;-78
2022/05/30 09:14:00;;;;;;;1.50;1.40;;;10.70;78.50;;;;;;4950594;28;20576;-76
2022/05/30 09:16:30;;;;;;;1.50;1.40;;;10.80;77.50;;;;;;4953364;28;20230;-75
2022/05/30 09:19:00;;;;;;;2.57;1.20;;;10.80;77.70;;;;;;4954595;28;20212;-77
2022/05/30 09:21:31;;;;;;;1.50;1.40;;;10.80;78.80;;;;;;4939609;29;20642;-76
2022/05/30 09:23:59;;;;;;;1.60;1.50;;;10.70;79.30;;;;;;4953689;28;20187;-76
2022/05/30 09:26:40;;;;;;;1.70;1.40;;;10.60;79.20;;;;;;4953820;29;20328;-77
2022/05/30 09:29:20;;;;;;;2.20;1.50;;;10.60;79.10;;;;;;4942991;29;20194;-75
2022/05/30 09:32:02;;;;;;;3.00;2.27;;;10.70;78.80;;;;;;4949164;29;20228;-75
2022/05/30 09:34:47;;;;;;;5.23;1.97;;;10.80;78.00;;;;;;4953483;28;20209;-75
2022/05/30 09:37:30;;;;;;;1.93;1.50;;;10.90;77.30;;;;;;4953779;28;20190;-74
2022/05/30 09:39:58;;;;;;;4.37;2.30;;;10.90;77.30;;;;;;4952990;28;20202;-79
2022/05/30 09:42:31;;;;;;;2.43;2.00;;;11.00;76.50;;;;;;4953196;28;20277;-74
2022/05/30 09:45:12;;;;;;;3.63;2.33;;;11.00;77.00;;;;;;4955202;28;20185;-78
2022/05/30 09:47:58;;;;;;;4.67;3.00;;;10.90;76.60;;;;;;4957402;28;20553;-74
2022/05/30 09:50:26;;;;;;;1.73;1.53;;;10.90;75.90;;;;;;4952796;28;20528;-75
2022/05/30 09:52:54;;;;;;;3.63;1.60;;;11.00;75.00;;;;;;4952878;28;20182;-76
2022/05/30 09:55:31;;;;;;;4.93;1.63;;;11.00;75.70;;;;;;4953567;28;20184;-74
2022/05/30 09:58:00;;;;;;;4.90;1.63;;;11.00;76.20;;;;;;4946625;29;20181;-74
2022/05/30 10:00:54;;;;;;;4.43;1.83;;;10.90;76.50;;;;;;4953190;28;20194;-75
2022/05/30 10:03:32;;;;;;;3.43;2.97;;;10.80;77.40;;;;;;4955934;28;20230;-74
2022/05/30 10:06:15;;;;;;;2.43;2.23;;;10.80;76.80;;;;;;4939295;29;20185;-74
2022/05/30 10:08:44;;;;;;;2.97;1.43;;;10.90;76.50;;;;;;4954532;28;20206;-74
2022/05/30 10:11:32;;;;;;;1.27;1.17;;;11.00;76.10;;;;;;4940564;29;20244;-77
2022/05/30 10:14:00;;;;;;;1.47;1.30;;;11.20;74.40;;;;;;4955871;28;20519;-74
2022/05/30 10:16:36;;;;;;;1.60;1.20;;;11.30;73.40;;;;;;4952175;28;20297;-75
2022/05/30 10:19:09;;;;;;;1.20;1.20;;;11.50;72.50;;;;;;4957204;28;20611;-77
2022/05/30 10:30:44;;;;;;;1.67;1.17;;;11.90;69.40;;;;;;4957257;28;20676;-74
2022/05/30 10:33:31;;;;;;;1.40;1.30;;;11.80;70.30;;;;;;4939986;28;20186;-74
2022/05/30 10:36:25;;;;;;;2.13;1.33;;;11.70;71.40;;;;;;4956999;28;20186;-82
2022/05/30 10:39:03;;;;;;;2.13;1.37;;;11.50;71.90;;;;;;4947183;29;20555;-78
2022/05/30 10:41:42;;;;;;;1.40;1.30;;;11.40;72.80;;;;;;4937304;29;20288;-76
2022/05/30 10:44:18;;;;;;;1.70;1.40;;;11.30;73.40;;;;;;4956175;28;20225;-79
2022/05/30 10:47:18;;;;;;;2.37;1.50;;;11.20;73.70;;;;;;4954974;29;20190;-76
2022/05/30 10:50:00;;;;;;;1.70;1.33;;;11.20;74.80;;;;;;4952122;28;20183;-79
2022/05/30 10:53:03;;;;;;;3.17;1.40;;;11.00;74.20;;;;;;4956844;28;20187;-77
2022/05/30 10:55:40;;;;;;;1.40;1.30;;;11.10;74.90;;;;;;4938497;29;20665;-77
2022/05/30 10:58:31;;;;;;;6.00;3.73;;;11.10;74.60;;;;;;4948353;28;20191;-77
2022/05/30 11:01:10;;;;;;;6.77;1.60;;;11.00;74.60;;;;;;4965892;28;20273;-78
2022/05/30 11:03:45;;;;;;;2.40;1.67;;;11.10;74.40;;;;;;4955628;28;20190;-77
2022/05/30 11:06:30;;;;;;;1.77;1.50;;;11.00;75.10;;;;;;4955490;28;20262;-77
2022/05/30 11:09:02;;;;;;;1.83;1.60;;;11.00;74.90;;;;;;4956184;29;20194;-76
2022/05/30 11:12:05;;;;;;;5.33;2.03;;;11.00;75.20;;;;;;4955392;28;20217;-78
2022/05/30 11:14:41;;;;;;;1.60;1.50;;;10.90;74.90;;;;;;4956783;28;20206;-78
2022/05/30 11:17:34;;;;;;;1.60;1.50;;;10.90;74.70;;;;;;4953003;28;20244;-74
2022/05/30 11:20:34;;;;;;;2.03;1.40;;;10.90;75.20;;;;;;4955264;28;20669;-76
2022/05/30 11:23:05;;;;;;;3.17;1.77;;;10.80;75.70;;;;;;4950955;28;20257;-77
2022/05/30 11:26:11;;;;;;;2.83;1.60;;;10.80;76.20;;;;;;4954430;28;20268;-77
2022/05/30 11:28:59;;;;;;;2.13;1.60;;;10.70;76.80;;;;;;4935116;29;20832;-76
2022/05/30 11:31:56;;;;;;;9.23;2.20;;;10.70;76.80;;;;;;4953309;28;20198;-77
2022/05/30 11:34:26;;;;;;;4.17;2.27;;;10.70;77.10;;;;;;4943554;29;20281;-76
2022/05/30 11:37:13;;;;;;;1.83;1.60;;;10.70;77.00;;;;;;4934245;29;20210;-76
2022/05/30 11:39:51;;;;;;;2.67;1.97;;;10.70;77.00;;;;;;4893247;29;20186;-77
2022/05/30 11:42:37;;;;;;;3.10;1.50;;;10.70;77.10;;;;;;4955969;29;20209;-78
2022/05/30 11:45:21;;;;;;;2.87;1.90;;;10.60;77.30;;;;;;4955824;28;20225;-77
2022/05/30 11:48:05;;;;;;;2.63;1.57;;;10.70;77.10;;;;;;4938886;29;20295;-78
2022/05/30 11:51:08;;;;;;;4.43;1.70;;;10.80;75.80;;;;;;4955846;28;20296;-77
2022/05/30 11:53:57;;;;;;;1.17;1.10;;;10.80;76.00;;;;;;4902970;29;20228;-78
2022/05/30 11:56:36;;;;;;;1.40;1.10;;;10.80;75.80;;;;;;4949024;28;20201;-76
2022/05/30 11:59:21;;;;;;;1.73;1.20;;;11.10;74.80;;;;;;4930455;29;20303;-76
2022/05/30 12:01:51;;;;;;;2.30;1.20;;;11.20;73.60;;;;;;4955771;28;20558;-80
2022/05/30 12:04:40;;;;;;;1.97;1.10;;;11.30;73.00;;;;;;4955306;28;20178;-77
2022/05/30 12:07:13;;;;;;;1.00;1.00;;;11.50;72.50;;;;;;4953180;28;20264;-79
2022/05/30 12:10:17;;;;;;;1.00;1.00;;;11.50;72.60;;;;;;4955714;28;20187;-77
2022/05/30 12:12:51;;;;;;;1.27;1.00;;;11.70;71.20;;;;;;4943954;29;20266;-76
2022/05/30 12:15:49;;;;;;;1.07;1.00;;;11.70;71.50;;;;;;4938391;29;20237;-78
2022/05/30 12:24:13;;;;;;;1.67;0.90;;;11.80;70.60;;;;;;4955387;28;20218;-77
2022/05/30 12:27:10;;;;;;;1.10;1.00;;;11.90;69.60;;;;;;4954677;28;20564;-76
2022/05/30 12:29:42;;;;;;;1.10;1.00;;;11.90;69.70;;;;;;4942048;28;20206;-78
2022/05/30 12:32:33;;;;;;;2.43;1.30;;;11.90;69.50;;;;;;4954942;28;20194;-80
2022/05/30 12:37:53;;;;;;;2.27;1.10;;;11.80;69.80;;;;;;4954501;29;20587;-79
2022/05/30 12:40:23;;;;;;;1.23;1.10;;;11.80;69.70;;;;;;4955406;28;20217;-85
2022/05/30 12:43:24;;;;;;;1.20;1.10;;;11.90;69.10;;;;;;4954885;28;20255;-79
2022/05/30 12:45:57;;;;;;;2.70;1.10;;;11.90;69.40;;;;;;4947571;29;20194;-80
2022/05/30 12:49:03;;;;;;;4.90;4.20;;;11.90;68.60;;;;;;4937298;28;20175;-79
2022/05/30 12:51:37;;;;;;;1.10;1.00;;;11.80;69.10;;;;;;4954151;29;20197;-81
2022/05/30 12:54:04;;;;;;;1.10;1.00;;;11.80;68.50;;;;;;4954606;29;20707;-79
2022/05/30 12:57:01;;;;;;;1.23;1.13;;;11.80;68.70;;;;;;4935645;29;20275;-80
2022/05/30 12:59:34;;;;;;;1.27;1.00;;;11.80;69.00;;;;;;4942693;29;20279;-79
2022/05/30 13:02:07;;;;;;;1.63;1.10;;;11.70;69.50;;;;;;4951743;28;20211;-80
2022/05/30 13:04:36;;;;;;;1.90;1.20;;;11.70;69.50;;;;;;4954619;29;20183;-79
2022/05/30 13:07:06;;;;;;;1.33;1.10;;;11.70;70.30;;;;;;4954173;28;20214;-79
2022/05/30 13:09:41;;;;;;;2.00;1.07;;;11.70;69.70;;;;;;4954235;28;20191;-79
2022/05/30 13:12:51;;;;;;;1.20;1.10;;;11.60;70.10;;;;;;4954607;28;20202;-79
2022/05/30 13:15:41;;;;;;;1.10;1.10;;;11.60;69.70;;;;;;4954531;29;20205;-79
2022/05/30 13:18:21;;;;;;;1.70;1.10;;;11.70;68.80;;;;;;4942291;28;20689;-79
2022/05/30 13:21:01;;;;;;;1.23;1.07;;;11.60;69.10;;;;;;4953778;28;20315;-79
2022/05/30 13:23:34;;;;;;;1.50;1.03;;;11.70;68.30;;;;;;4954076;28;20198;-79
2022/05/30 13:26:10;;;;;;;1.07;0.97;;;11.70;68.20;;;;;;4954407;29;20230;-79
2022/05/30 13:28:42;;;;;;;0.93;0.87;;;11.70;68.70;;;;;;4947678;29;20228;-78
2022/05/30 13:31:12;;;;;;;1.20;1.10;;;11.70;69.30;;;;;;4933540;29;20210;-78
2022/05/30 13:33:47;;;;;;;2.00;1.10;;;11.60;69.10;;;;;;4954256;29;20225;-78
2022/05/30 13:36:19;;;;;;;2.60;1.20;;;11.60;68.80;;;;;;4954144;28;20198;-77
2022/05/30 13:38:49;;;;;;;3.23;1.30;;;11.50;68.90;;;;;;4957457;29;20198;-77
2022/05/30 13:41:35;;;;;;;1.30;1.20;;;11.60;68.90;;;;;;4941810;29;20190;-78
2022/05/30 13:44:02;;;;;;;1.57;1.00;;;11.50;69.00;;;;;;4958169;29;20223;-80
2022/05/30 13:46:33;;;;;;;1.47;1.20;;;11.60;67.60;;;;;;4957885;29;20261;-78
2022/05/30 13:49:00;;;;;;;1.33;1.10;;;11.70;68.00;;;;;;4958028;28;20191;-76